createdAt,value
2022-10-02T00:01:53.704Z,13.48
2022-10-02T00:07:04.291Z,13.45
2022-10-02T00:12:12.747Z,13.46
2022-10-02T00:17:19.603Z,13.32
2022-10-02T00:22:42.929Z,13.36
2022-10-02T00:28:04.313Z,13.35
2022-10-02T00:33:20.271Z,13.31
2022-10-02T00:38:40.841Z,13.32
2022-10-02T00:44:00.560Z,13.32
2022-10-02T00:49:23.620Z,13.34
2022-10-02T00:54:49.555Z,13.35
2022-10-02T01:00:04.452Z,13.29
2022-10-02T01:05:10.419Z,13.34
2022-10-02T01:10:15.179Z,13.29
2022-10-02T01:15:22.398Z,13.30
2022-10-02T01:20:36.417Z,13.25
2022-10-02T01:25:42.119Z,13.25
2022-10-02T01:30:50.252Z,13.23
2022-10-02T01:35:54.119Z,13.25
2022-10-02T01:40:59.152Z,13.23
2022-10-02T01:46:17.068Z,13.25
2022-10-02T01:51:35.111Z,13.23
2022-10-02T01:56:49.498Z,13.26
2022-10-02T02:02:05.185Z,13.23
2022-10-02T02:07:15.293Z,13.19
2022-10-02T02:12:24.603Z,13.29
2022-10-02T02:17:33.476Z,13.27
2022-10-02T02:22:42.291Z,13.31
2022-10-02T02:27:52.120Z,13.29
2022-10-02T02:33:01.640Z,13.29
2022-10-02T02:38:09.568Z,13.26
2022-10-02T02:43:19.671Z,13.24
2022-10-02T02:48:27.624Z,13.32
2022-10-02T02:53:36.695Z,13.35
2022-10-02T02:58:46.541Z,13.31
2022-10-02T03:03:50.835Z,13.22
2022-10-02T03:08:55.822Z,13.32
2022-10-02T03:14:08.951Z,13.39
2022-10-02T03:19:28.503Z,13.41
2022-10-02T03:24:40.444Z,13.39
2022-10-02T03:29:50.359Z,13.36
2022-10-02T03:34:54.555Z,13.33
2022-10-02T03:39:59.361Z,13.29
2022-10-02T03:45:04.841Z,13.27
2022-10-02T03:50:10.088Z,13.29
2022-10-02T03:55:29.697Z,13.32
2022-10-02T04:00:38.598Z,13.33
2022-10-02T04:05:48.812Z,13.36
2022-10-02T04:10:58.595Z,13.37
2022-10-02T04:16:10.441Z,13.38
2022-10-02T04:21:20.110Z,13.44
2022-10-02T04:26:29.160Z,13.35
2022-10-02T04:31:34.386Z,13.41
2022-10-02T04:36:48.767Z,13.44
2022-10-02T04:42:15.090Z,13.47
2022-10-02T04:47:38.439Z,13.46
2022-10-02T04:52:57.652Z,13.44
2022-10-02T04:58:24.116Z,13.42
2022-10-02T05:03:43.867Z,13.44
2022-10-02T05:08:59.203Z,13.41
2022-10-02T05:14:40.377Z,13.43
2022-10-02T05:20:00.227Z,13.44
2022-10-02T05:25:29.053Z,13.45
2022-10-02T05:30:42.535Z,13.42
2022-10-02T05:36:12.269Z,13.43
2022-10-02T05:41:24.148Z,13.46
2022-10-02T05:46:32.277Z,13.48
2022-10-02T05:51:44.824Z,13.49
2022-10-02T05:56:57.576Z,13.49
2022-10-02T06:02:06.719Z,13.48
2022-10-02T06:07:15.864Z,13.52
2022-10-02T06:12:26.859Z,13.50
2022-10-02T06:17:35.199Z,13.53
2022-10-02T06:22:46.102Z,13.54
2022-10-02T06:27:55.101Z,13.52
2022-10-02T06:33:06.106Z,13.58
2022-10-02T06:38:27.385Z,13.61
2022-10-02T06:43:47.188Z,13.66
2022-10-02T06:48:58.592Z,13.67
2022-10-02T06:54:19.323Z,13.67
2022-10-02T06:59:36.906Z,13.67
2022-10-02T07:05:11.733Z,13.77
2022-10-02T07:10:27.177Z,13.79
2022-10-02T07:15:50.904Z,13.84
2022-10-02T07:21:01.783Z,13.76
2022-10-02T07:26:26.207Z,13.78
2022-10-02T07:31:40.888Z,13.78
2022-10-02T07:36:55.185Z,13.80
2022-10-02T07:42:27.867Z,13.90
2022-10-02T07:47:57.642Z,13.99
2022-10-02T07:53:09.081Z,13.94
2022-10-02T07:58:18.860Z,14.16
2022-10-02T08:03:25.520Z,14.17
2022-10-02T08:08:33.092Z,14.30
2022-10-02T08:13:43.465Z,14.44
2022-10-02T08:18:51.259Z,14.44
2022-10-02T08:23:59.964Z,14.55
2022-10-02T08:29:12.101Z,14.63
2022-10-02T08:34:19.618Z,14.60
2022-10-02T08:39:44.298Z,14.73
2022-10-02T08:45:21.648Z,14.76
2022-10-02T08:50:44.158Z,14.90
2022-10-02T08:56:04.164Z,15.03
2022-10-02T09:01:29.177Z,14.99
2022-10-02T09:07:16.554Z,15.05
2022-10-02T09:12:58.445Z,15.16
2022-10-02T09:18:16.851Z,15.53
2022-10-02T09:23:35.670Z,15.72
2022-10-02T09:29:12.064Z,15.74
2022-10-02T09:34:52.089Z,15.91
2022-10-02T09:40:26.819Z,16.03
2022-10-02T09:46:03.809Z,15.92
2022-10-02T09:51:48.001Z,16.21
2022-10-02T09:57:31.801Z,16.35
2022-10-02T10:03:13.064Z,16.95
2022-10-02T10:08:37.775Z,17.33
2022-10-02T10:14:08.667Z,17.30
2022-10-02T10:19:54.582Z,17.49
2022-10-02T10:25:31.375Z,17.68
2022-10-02T10:31:03.846Z,18.64
2022-10-02T10:37:00.968Z,18.08
2022-10-02T10:43:06.032Z,17.76
2022-10-02T10:48:27.792Z,17.39
2022-10-02T10:54:08.605Z,17.28
2022-10-02T10:59:35.230Z,17.04
2022-10-02T11:05:03.138Z,17.04
2022-10-02T11:10:20.235Z,17.03
2022-10-02T11:15:52.310Z,17.17
2022-10-02T11:21:20.702Z,17.19
2022-10-02T11:26:38.769Z,17.35
2022-10-02T11:32:14.587Z,17.21
2022-10-02T11:37:39.155Z,16.85
2022-10-02T11:43:14.010Z,16.84
2022-10-02T11:48:50.797Z,16.69
2022-10-02T11:54:05.820Z,16.78
2022-10-02T11:59:28.337Z,17.12
2022-10-02T12:04:42.160Z,17.69
2022-10-02T12:10:00.041Z,17.84
2022-10-02T12:15:10.890Z,18.22
2022-10-02T12:20:39.571Z,19.37
2022-10-02T12:26:12.512Z,20.00
2022-10-02T12:31:25.275Z,19.49
2022-10-02T12:36:51.341Z,19.16
2022-10-02T12:42:20.441Z,18.92
2022-10-02T12:47:56.828Z,19.11
2022-10-02T12:53:31.524Z,18.99
2022-10-02T12:58:49.985Z,20.06
2022-10-02T13:04:39.156Z,21.38
2022-10-02T13:09:52.361Z,22.24
2022-10-02T13:15:19.467Z,22.05
2022-10-02T13:20:36.079Z,22.75
2022-10-02T13:25:56.187Z,23.18
2022-10-02T13:31:11.323Z,23.15
2022-10-02T13:36:20.912Z,24.14
2022-10-02T13:41:38.995Z,25.03
2022-10-02T13:46:57.596Z,25.72
2022-10-02T13:52:14.899Z,26.33
2022-10-02T13:57:35.494Z,26.93
2022-10-02T14:02:49.479Z,27.03
2022-10-02T14:08:26.291Z,27.28
2022-10-02T14:13:48.118Z,28.23
2022-10-02T14:19:22.360Z,28.65
2022-10-02T14:25:00.669Z,28.90
2022-10-02T14:30:08.378Z,28.74
2022-10-02T14:35:43.669Z,29.22
2022-10-02T14:40:53.712Z,28.37
2022-10-02T14:46:05.449Z,28.78
2022-10-02T14:51:22.764Z,28.38
2022-10-02T14:56:44.134Z,25.80
2022-10-02T15:02:01.146Z,24.90
2022-10-02T15:07:10.492Z,24.51
2022-10-02T15:12:19.392Z,24.55
2022-10-02T15:17:56.976Z,25.38
2022-10-02T15:23:04.395Z,25.89
2022-10-02T15:28:35.842Z,26.35
2022-10-02T15:33:47.852Z,26.58
2022-10-02T15:39:22.628Z,26.63
2022-10-02T15:44:43.871Z,26.29
2022-10-02T15:50:04.057Z,24.63
2022-10-02T15:55:21.243Z,23.83
2022-10-02T16:00:27.235Z,23.04
2022-10-02T16:05:55.505Z,22.32
2022-10-02T16:11:18.675Z,21.85
2022-10-02T16:16:35.340Z,21.41
2022-10-02T16:21:55.184Z,20.94
2022-10-02T16:27:21.929Z,20.92
2022-10-02T16:32:35.125Z,20.60
2022-10-02T16:37:46.113Z,20.31
2022-10-02T16:42:57.872Z,19.92
2022-10-02T16:48:08.755Z,19.79
2022-10-02T16:53:23.864Z,19.71
2022-10-02T16:58:32.681Z,19.38
2022-10-02T17:03:41.841Z,19.15
2022-10-02T17:08:53.796Z,19.04
2022-10-02T17:14:15.850Z,18.71
2022-10-02T17:19:26.148Z,18.43
2022-10-02T17:24:39.181Z,18.32
2022-10-02T17:29:53.448Z,18.13
2022-10-02T17:34:59.882Z,17.80
2022-10-02T17:40:13.920Z,17.71
2022-10-02T17:45:32.947Z,17.53
2022-10-02T17:50:54.501Z,17.42
2022-10-02T17:56:29.578Z,17.27
2022-10-02T18:01:43.689Z,17.01
2022-10-02T18:07:01.027Z,16.85
2022-10-02T18:12:28.512Z,16.75
2022-10-02T18:17:47.042Z,16.47
2022-10-02T18:23:09.056Z,16.32
2022-10-02T18:28:29.012Z,16.12
2022-10-02T18:34:09.320Z,16.01
2022-10-02T18:39:20.691Z,15.73
2022-10-02T18:44:45.136Z,15.66
2022-10-02T18:50:05.624Z,15.48
2022-10-02T18:55:35.752Z,15.41
2022-10-02T19:01:03.756Z,15.22
2022-10-02T19:06:16.227Z,15.05
2022-10-02T19:11:20.024Z,14.95
2022-10-02T19:16:26.260Z,14.90
2022-10-02T19:21:35.376Z,14.77
2022-10-02T19:26:45.578Z,14.69
2022-10-02T19:31:49.417Z,14.64
2022-10-02T19:36:58.155Z,14.51
2022-10-02T19:42:05.264Z,14.37
2022-10-02T19:47:16.851Z,14.31
2022-10-02T19:52:37.037Z,14.27
2022-10-02T19:57:41.669Z,14.10
2022-10-02T20:02:47.924Z,14.03
2022-10-02T20:07:55.849Z,14.02
2022-10-02T20:13:07.327Z,13.90
2022-10-02T20:18:13.209Z,13.86
2022-10-02T20:23:24.199Z,13.79
2022-10-02T20:28:34.447Z,13.71
2022-10-02T20:33:42.561Z,13.64
2022-10-02T20:38:53.143Z,13.55
2022-10-02T20:44:03.067Z,13.47
2022-10-02T20:49:27.641Z,13.40
2022-10-02T20:54:44.443Z,13.27
2022-10-02T21:00:12.011Z,13.17
2022-10-02T21:05:38.963Z,13.08
2022-10-02T21:11:15.282Z,13.01
2022-10-02T21:16:52.697Z,13.03
2022-10-02T21:22:24.887Z,12.91
2022-10-02T21:28:08.162Z,12.87
2022-10-02T21:33:15.827Z,12.54
2022-10-02T21:38:53.134Z,12.60
2022-10-02T21:44:36.351Z,12.59
2022-10-02T21:50:15.117Z,12.47
2022-10-02T21:55:54.161Z,12.41
2022-10-02T22:01:24.941Z,12.22
2022-10-02T22:06:38.447Z,12.18
2022-10-02T22:11:58.363Z,12.17
2022-10-02T22:17:13.850Z,12.02
2022-10-02T22:22:30.731Z,12.01
2022-10-02T22:27:57.597Z,11.91
2022-10-02T22:33:14.108Z,11.89
2022-10-02T22:38:25.697Z,11.87
2022-10-02T22:43:38.135Z,11.72
2022-10-02T22:48:48.973Z,11.64
2022-10-02T22:53:57.521Z,11.67
2022-10-02T22:59:12.245Z,11.63
2022-10-02T23:04:28.691Z,11.53
2022-10-02T23:09:40.791Z,11.53
2022-10-02T23:14:58.312Z,11.48
2022-10-02T23:20:06.059Z,11.40
2022-10-02T23:25:20.607Z,11.39
2022-10-02T23:30:26.326Z,11.37
2022-10-02T23:35:38.987Z,11.30
2022-10-02T23:41:19.868Z,11.32
2022-10-02T23:46:30.213Z,11.32
2022-10-02T23:51:45.985Z,11.30
2022-10-02T23:57:08.083Z,11.27
